createdAt,value
2022-12-11T00:00:21.836Z,4.17
2022-12-11T00:02:48.625Z,4.16
2022-12-11T00:05:15.497Z,4.19
2022-12-11T00:07:42.357Z,4.20
2022-12-11T00:10:09.615Z,4.16
2022-12-11T00:12:36.382Z,4.12
2022-12-11T00:15:03.403Z,4.13
2022-12-11T00:17:30.183Z,4.13
2022-12-11T00:19:56.959Z,4.10
2022-12-11T00:22:23.751Z,4.12
2022-12-11T00:24:51.670Z,4.15
2022-12-11T00:27:18.476Z,4.08
2022-12-11T00:29:45.310Z,4.07
2022-12-11T00:32:12.154Z,4.07
2022-12-11T00:34:39.040Z,4.06
2022-12-11T00:37:05.848Z,4.09
2022-12-11T00:39:32.768Z,4.06
2022-12-11T00:41:59.605Z,4.06
2022-12-11T00:44:26.431Z,4.09
2022-12-11T00:46:53.176Z,4.10
2022-12-11T00:49:19.963Z,4.06
2022-12-11T00:51:46.772Z,4.06
2022-12-11T00:54:13.638Z,4.05
2022-12-11T00:56:40.519Z,4.06
2022-12-11T00:59:07.342Z,4.00
2022-12-11T01:01:34.404Z,4.00
2022-12-11T01:04:01.298Z,4.05
2022-12-11T01:06:28.698Z,4.05
2022-12-11T01:09:14.666Z,4.00
2022-12-11T01:11:43.050Z,4.01
2022-12-11T01:14:11.886Z,4.00
2022-12-11T01:16:38.926Z,3.99
2022-12-11T01:19:05.874Z,3.97
2022-12-11T01:21:32.701Z,3.94
2022-12-11T01:23:59.458Z,3.98
2022-12-11T01:26:26.241Z,3.99
2022-12-11T01:28:53.140Z,3.96
2022-12-11T01:31:20.786Z,3.97
2022-12-11T01:33:48.038Z,4.00
2022-12-11T01:36:18.243Z,3.91
2022-12-11T01:38:46.732Z,3.89
2022-12-11T01:41:14.354Z,3.91
2022-12-11T01:44:05.185Z,3.92
2022-12-11T01:46:34.357Z,3.89
2022-12-11T01:49:04.836Z,3.87
2022-12-11T01:51:36.740Z,3.87
2022-12-11T01:54:09.142Z,3.90
2022-12-11T01:56:38.049Z,3.88
2022-12-11T01:59:08.174Z,3.89
2022-12-11T02:01:43.155Z,3.91
2022-12-11T02:04:11.256Z,3.87
2022-12-11T02:06:47.039Z,3.84
2022-12-11T02:09:17.156Z,3.88
2022-12-11T02:11:59.233Z,3.85
2022-12-11T02:14:38.122Z,3.85
2022-12-11T02:17:06.804Z,3.83
2022-12-11T02:19:48.865Z,3.83
2022-12-11T02:22:37.684Z,3.84
2022-12-11T02:25:30.692Z,3.78
2022-12-11T02:28:31.788Z,3.83
2022-12-11T02:31:07.435Z,3.77
2022-12-11T02:33:42.402Z,3.83
2022-12-11T02:36:10.675Z,3.72
2022-12-11T02:38:41.816Z,3.78
2022-12-11T02:41:11.998Z,3.78
2022-12-11T02:43:40.479Z,3.82
2022-12-11T02:46:08.806Z,3.78
2022-12-11T02:48:37.213Z,3.81
2022-12-11T02:51:06.926Z,3.81
2022-12-11T02:53:37.465Z,3.87
2022-12-11T02:56:11.183Z,3.82
2022-12-11T02:58:43.530Z,3.83
2022-12-11T03:01:10.707Z,3.77
2022-12-11T03:03:37.771Z,3.77
2022-12-11T03:06:04.840Z,3.76
2022-12-11T03:08:32.215Z,3.72
2022-12-11T03:10:59.113Z,3.76
2022-12-11T03:13:25.912Z,3.77
2022-12-11T03:16:12.196Z,3.76
2022-12-11T03:18:51.147Z,3.78
2022-12-11T03:21:35.119Z,3.77
2022-12-11T03:24:04.629Z,3.72
2022-12-11T03:26:37.277Z,3.76
2022-12-11T03:29:32.445Z,3.74
2022-12-11T03:32:03.272Z,3.80
2022-12-11T03:34:41.679Z,3.69
2022-12-11T03:37:10.313Z,3.74
2022-12-11T03:39:42.434Z,3.70
2022-12-11T03:42:13.944Z,3.72
2022-12-11T03:44:43.729Z,3.69
2022-12-11T03:47:11.424Z,3.76
2022-12-11T03:49:41.743Z,3.77
2022-12-11T03:52:11.471Z,3.70
2022-12-11T03:54:41.290Z,3.71
2022-12-11T03:57:10.640Z,3.75
2022-12-11T03:59:37.451Z,3.75
2022-12-11T04:02:10.975Z,3.72
2022-12-11T04:04:39.296Z,3.73
2022-12-11T04:07:06.807Z,3.68
2022-12-11T04:09:34.304Z,3.71
2022-12-11T04:12:01.084Z,3.73
2022-12-11T04:14:46.472Z,3.68
2022-12-11T04:17:33.206Z,3.69
2022-12-11T04:20:18.813Z,3.68
2022-12-11T04:23:03.956Z,3.72
2022-12-11T04:25:30.773Z,3.63
2022-12-11T04:27:57.553Z,3.70
2022-12-11T04:30:30.781Z,3.68
2022-12-11T04:33:00.735Z,3.59
2022-12-11T04:35:27.563Z,3.54
2022-12-11T04:37:54.403Z,3.62
2022-12-11T04:40:21.381Z,3.62
2022-12-11T04:42:48.180Z,3.66
2022-12-11T04:45:15.432Z,3.64
2022-12-11T04:47:42.390Z,3.67
2022-12-11T04:50:14.384Z,3.62
2022-12-11T04:52:41.896Z,3.63
2022-12-11T04:55:09.497Z,3.74
2022-12-11T04:57:36.618Z,3.65
2022-12-11T05:00:06.629Z,3.65
2022-12-11T05:02:38.982Z,3.64
2022-12-11T05:05:07.234Z,3.68
2022-12-11T05:07:34.144Z,3.65
2022-12-11T05:10:00.975Z,3.69
2022-12-11T05:12:28.075Z,3.70
2022-12-11T05:14:55.399Z,3.72
2022-12-11T05:17:22.768Z,3.72
2022-12-11T05:19:52.278Z,3.71
2022-12-11T05:22:19.613Z,3.73
2022-12-11T05:24:46.506Z,3.74
2022-12-11T05:27:13.448Z,3.74
2022-12-11T05:29:40.306Z,3.74
2022-12-11T05:32:07.126Z,3.75
2022-12-11T05:34:33.885Z,3.72
2022-12-11T05:37:01.578Z,3.76
2022-12-11T05:39:28.404Z,3.69
2022-12-11T05:41:55.182Z,3.69
2022-12-11T05:44:22.054Z,3.60
2022-12-11T05:46:49.810Z,3.65
2022-12-11T05:49:19.867Z,3.70
2022-12-11T05:51:47.670Z,3.67
2022-12-11T05:54:14.738Z,3.65
2022-12-11T05:56:41.625Z,3.65
2022-12-11T05:59:09.175Z,3.65
2022-12-11T06:01:43.325Z,3.66
2022-12-11T06:04:12.278Z,3.65
2022-12-11T06:06:40.524Z,3.66
2022-12-11T06:09:07.780Z,3.61
2022-12-11T06:11:35.012Z,3.67
2022-12-11T06:14:03.352Z,3.61
2022-12-11T06:16:30.962Z,3.60
2022-12-11T06:18:58.785Z,3.66
2022-12-11T06:21:31.049Z,3.63
2022-12-11T06:24:00.436Z,3.63
2022-12-11T06:26:27.800Z,3.63
2022-12-11T06:28:54.846Z,3.63
2022-12-11T06:31:21.817Z,3.59
2022-12-11T06:33:48.715Z,3.59
2022-12-11T06:36:23.116Z,3.59
2022-12-11T06:38:50.785Z,3.58
2022-12-11T06:41:17.719Z,3.60
2022-12-11T06:43:44.716Z,3.60
2022-12-11T06:46:19.631Z,3.53
2022-12-11T06:48:47.717Z,3.55
2022-12-11T06:51:18.309Z,3.62
2022-12-11T06:53:45.744Z,3.60
2022-12-11T06:56:14.693Z,3.57
2022-12-11T06:58:43.182Z,3.54
2022-12-11T07:01:22.121Z,3.60
2022-12-11T07:03:49.321Z,3.58
2022-12-11T07:06:16.626Z,3.59
2022-12-11T07:08:43.753Z,3.55
2022-12-11T07:11:14.737Z,3.59
2022-12-11T07:13:44.501Z,3.62
2022-12-11T07:16:13.056Z,3.61
2022-12-11T07:18:41.700Z,3.66
2022-12-11T07:21:11.398Z,3.63
2022-12-11T07:23:38.256Z,3.61
2022-12-11T07:26:07.016Z,3.63
2022-12-11T07:28:34.541Z,3.60
2022-12-11T07:31:09.949Z,3.63
2022-12-11T07:33:36.840Z,3.58
2022-12-11T07:36:06.525Z,3.50
2022-12-11T07:38:33.289Z,3.52
2022-12-11T07:41:08.408Z,3.61
2022-12-11T07:43:36.085Z,3.63
2022-12-11T07:46:08.211Z,3.66
2022-12-11T07:48:36.589Z,3.62
2022-12-11T07:51:22.993Z,3.60
2022-12-11T07:53:50.456Z,3.70
2022-12-11T07:56:18.963Z,3.69
2022-12-11T07:58:46.810Z,3.69
2022-12-11T08:01:18.849Z,3.70
2022-12-11T08:03:46.017Z,3.78
2022-12-11T08:06:13.395Z,3.80
2022-12-11T08:08:41.795Z,3.70
2022-12-11T08:11:13.221Z,3.82
2022-12-11T08:13:41.023Z,3.88
2022-12-11T08:16:11.558Z,3.83
2022-12-11T08:18:38.896Z,3.85
2022-12-11T08:21:12.039Z,3.87
2022-12-11T08:23:38.855Z,3.91
2022-12-11T08:26:08.463Z,3.96
2022-12-11T08:28:35.316Z,3.95
2022-12-11T08:31:05.511Z,3.98
2022-12-11T08:33:32.344Z,3.98
2022-12-11T08:36:02.059Z,3.97
2022-12-11T08:38:28.861Z,3.97
2022-12-11T08:40:55.702Z,4.03
2022-12-11T08:43:22.546Z,4.05
2022-12-11T08:45:49.470Z,4.05
2022-12-11T08:48:16.424Z,4.09
2022-12-11T08:50:43.384Z,4.08
2022-12-11T08:53:10.160Z,4.09
2022-12-11T08:55:36.931Z,4.11
2022-12-11T08:58:03.846Z,4.16
2022-12-11T09:00:30.578Z,4.21
2022-12-11T09:02:57.472Z,4.21
2022-12-11T09:05:24.250Z,4.22
2022-12-11T09:07:51.071Z,4.23
2022-12-11T09:10:18.521Z,4.23
2022-12-11T09:12:45.357Z,4.23
2022-12-11T09:15:12.480Z,4.23
2022-12-11T09:17:39.548Z,4.22
2022-12-11T09:20:06.971Z,4.23
2022-12-11T09:22:34.235Z,4.23
2022-12-11T09:25:01.077Z,4.23
2022-12-11T09:27:27.912Z,4.22
2022-12-11T09:29:54.794Z,4.22
2022-12-11T09:32:21.549Z,4.20
2022-12-11T09:34:50.995Z,4.19
2022-12-11T09:37:17.898Z,4.19
2022-12-11T09:39:44.689Z,4.20
2022-12-11T09:42:20.662Z,4.20
2022-12-11T09:44:53.066Z,4.19
2022-12-11T09:47:25.798Z,4.20
2022-12-11T09:50:12.954Z,4.20
2022-12-11T09:52:57.853Z,4.22
2022-12-11T09:55:29.707Z,4.20
2022-12-11T09:58:14.528Z,4.22
2022-12-11T10:00:49.351Z,4.21
2022-12-11T10:03:37.988Z,4.22
2022-12-11T10:06:12.794Z,4.21
2022-12-11T10:09:11.686Z,4.21
2022-12-11T10:12:06.619Z,4.23
2022-12-11T10:15:20.443Z,4.23
2022-12-11T10:17:47.569Z,4.24
2022-12-11T10:20:25.184Z,4.24
2022-12-11T10:22:54.442Z,4.27
2022-12-11T10:25:31.294Z,4.27
2022-12-11T10:27:58.399Z,4.29
2022-12-11T10:30:34.311Z,4.30
2022-12-11T10:33:27.000Z,4.32
2022-12-11T10:35:56.836Z,4.31
2022-12-11T10:38:32.621Z,4.34
2022-12-11T10:41:05.921Z,4.34
2022-12-11T10:43:38.002Z,4.34
2022-12-11T10:46:07.067Z,4.36
2022-12-11T10:48:34.000Z,4.36
2022-12-11T10:51:07.218Z,4.36
2022-12-11T10:53:34.955Z,4.39
2022-12-11T10:56:02.427Z,4.36
2022-12-11T10:58:34.145Z,4.38
2022-12-11T11:01:21.473Z,4.40
2022-12-11T11:04:15.528Z,4.41
2022-12-11T11:06:42.330Z,4.42
2022-12-11T11:09:30.339Z,4.41
2022-12-11T11:11:57.179Z,4.40
2022-12-11T11:14:24.005Z,4.41
2022-12-11T11:16:55.057Z,4.43
2022-12-11T11:19:27.062Z,4.42
2022-12-11T11:21:56.735Z,4.44
2022-12-11T11:24:43.756Z,4.44
2022-12-11T11:27:37.152Z,4.43
2022-12-11T11:30:22.058Z,4.46
2022-12-11T11:32:52.019Z,4.45
2022-12-11T11:35:22.458Z,4.46
2022-12-11T11:38:04.394Z,4.47
2022-12-11T11:40:38.072Z,4.49
2022-12-11T11:43:17.753Z,4.50
2022-12-11T11:45:47.838Z,4.51
2022-12-11T11:48:40.434Z,4.52
2022-12-11T11:51:15.884Z,4.51
2022-12-11T11:53:48.659Z,4.52
2022-12-11T11:56:47.925Z,4.53
2022-12-11T11:59:27.552Z,4.54
2022-12-11T12:01:56.836Z,4.53
2022-12-11T12:04:27.607Z,4.54
2022-12-11T12:07:22.542Z,4.53
2022-12-11T12:10:18.871Z,4.54
2022-12-11T12:13:44.471Z,4.55
2022-12-11T12:16:01.986Z,4.56
2022-12-11T12:18:31.756Z,4.53
2022-12-11T12:21:26.567Z,4.51
2022-12-11T12:24:11.533Z,4.50
2022-12-11T12:26:44.249Z,4.50
2022-12-11T12:29:22.668Z,4.49
2022-12-11T12:32:09.642Z,4.48
2022-12-11T12:35:27.621Z,4.45
2022-12-11T12:37:57.369Z,4.44
2022-12-11T12:40:51.222Z,4.42
2022-12-11T12:43:42.995Z,4.42
2022-12-11T12:46:44.287Z,4.40
2022-12-11T12:49:15.765Z,4.39
2022-12-11T12:51:44.453Z,4.41
2022-12-11T12:54:16.023Z,4.39
2022-12-11T12:56:45.238Z,4.39
2022-12-11T12:59:26.669Z,4.38
2022-12-11T13:02:02.772Z,4.36
2022-12-11T13:04:59.460Z,4.34
2022-12-11T13:07:30.530Z,4.30
2022-12-11T13:10:00.130Z,4.32
2022-12-11T13:12:50.881Z,4.28
2022-12-11T13:15:40.754Z,4.29
2022-12-11T13:18:32.599Z,4.30
2022-12-11T13:20:59.682Z,4.30
2022-12-11T13:23:30.884Z,4.30
2022-12-11T13:26:01.009Z,4.29
2022-12-11T13:28:27.815Z,4.29
2022-12-11T13:31:20.183Z,4.30
2022-12-11T13:33:53.597Z,4.31
2022-12-11T13:36:24.538Z,4.34
2022-12-11T13:39:10.978Z,4.31
2022-12-11T13:41:38.587Z,4.31
2022-12-11T13:44:07.331Z,4.34
2022-12-11T13:46:37.436Z,4.34
2022-12-11T13:49:07.700Z,4.31
2022-12-11T13:51:37.135Z,4.34
2022-12-11T13:54:19.218Z,4.31
2022-12-11T13:57:15.561Z,4.33
2022-12-11T13:59:47.983Z,4.34
2022-12-11T14:02:38.366Z,4.35
2022-12-11T14:05:09.090Z,4.32
2022-12-11T14:07:46.798Z,4.32
2022-12-11T14:10:24.314Z,4.32
2022-12-11T14:12:54.452Z,4.29
2022-12-11T14:15:21.915Z,4.29
2022-12-11T14:17:51.886Z,4.27
2022-12-11T14:20:25.858Z,4.25
2022-12-11T14:23:18.628Z,4.25
2022-12-11T14:26:03.722Z,4.22
2022-12-11T14:28:37.957Z,4.21
2022-12-11T14:31:06.526Z,4.20
2022-12-11T14:33:38.255Z,4.17
2022-12-11T14:36:06.883Z,4.18
2022-12-11T14:38:38.484Z,4.16
2022-12-11T14:41:22.504Z,4.15
2022-12-11T14:43:54.850Z,4.13
2022-12-11T14:46:43.591Z,4.12
2022-12-11T14:49:29.021Z,4.11
2022-12-11T14:51:58.552Z,4.10
2022-12-11T14:54:31.815Z,4.10
2022-12-11T14:56:59.846Z,4.05
2022-12-11T14:59:32.094Z,4.01
2022-12-11T15:02:02.154Z,4.01
2022-12-11T15:04:32.864Z,4.01
2022-12-11T15:07:00.029Z,3.97
2022-12-11T15:09:30.476Z,3.96
2022-12-11T15:12:08.380Z,3.95
2022-12-11T15:14:35.282Z,3.94
2022-12-11T15:17:02.212Z,3.90
2022-12-11T15:19:35.456Z,3.89
2022-12-11T15:22:09.279Z,3.83
2022-12-11T15:24:46.584Z,3.80
2022-12-11T15:27:38.178Z,3.79
2022-12-11T15:30:26.716Z,3.74
2022-12-11T15:33:06.318Z,3.75
2022-12-11T15:35:33.362Z,3.73
2022-12-11T15:38:00.525Z,3.69
2022-12-11T15:40:29.255Z,3.68
2022-12-11T15:42:57.568Z,3.66
2022-12-11T15:45:28.772Z,3.65
2022-12-11T15:47:56.459Z,3.62
2022-12-11T15:50:26.812Z,3.60
2022-12-11T15:52:56.166Z,3.59
2022-12-11T15:55:26.449Z,3.60
2022-12-11T15:57:56.245Z,3.59
2022-12-11T16:00:24.362Z,3.55
2022-12-11T16:02:52.264Z,3.59
2022-12-11T16:05:19.829Z,3.57
2022-12-11T16:07:46.714Z,3.53
2022-12-11T16:10:19.445Z,3.53
2022-12-11T16:12:47.524Z,3.56
2022-12-11T16:15:22.844Z,3.52
2022-12-11T16:17:50.867Z,3.50
2022-12-11T16:20:18.593Z,3.47
2022-12-11T16:22:45.490Z,3.44
2022-12-11T16:25:12.520Z,3.46
2022-12-11T16:27:40.932Z,3.43
2022-12-11T16:30:10.838Z,3.44
2022-12-11T16:32:38.358Z,3.41
2022-12-11T16:35:05.821Z,3.37
2022-12-11T16:37:32.935Z,3.35
2022-12-11T16:40:00.573Z,3.30
2022-12-11T16:42:28.129Z,3.31
2022-12-11T16:45:03.637Z,3.28
2022-12-11T16:47:30.807Z,3.23
2022-12-11T16:50:01.823Z,3.24
2022-12-11T16:52:29.205Z,3.22
2022-12-11T16:54:57.910Z,3.22
2022-12-11T16:57:25.729Z,3.20
2022-12-11T16:59:52.784Z,3.15
2022-12-11T17:02:20.832Z,3.17
2022-12-11T17:04:53.716Z,3.16
2022-12-11T17:07:21.107Z,3.11
2022-12-11T17:09:48.137Z,3.07
2022-12-11T17:12:15.634Z,2.99
2022-12-11T17:14:42.935Z,3.00
2022-12-11T17:17:10.263Z,3.02
2022-12-11T17:19:37.938Z,2.97
2022-12-11T17:22:05.221Z,2.96
2022-12-11T17:24:32.680Z,2.93
2022-12-11T17:27:00.956Z,2.90
2022-12-11T17:29:28.398Z,2.85
2022-12-11T17:31:55.623Z,2.87
2022-12-11T17:34:22.767Z,2.90
2022-12-11T17:36:50.208Z,2.87
2022-12-11T17:39:17.505Z,2.84
2022-12-11T17:41:44.888Z,2.80
2022-12-11T17:44:12.389Z,2.84
2022-12-11T17:46:40.053Z,2.81
2022-12-11T17:49:26.387Z,2.80
2022-12-11T17:52:04.694Z,2.82
2022-12-11T17:54:32.650Z,2.82
2022-12-11T17:57:00.603Z,2.80
2022-12-11T17:59:27.733Z,2.83
2022-12-11T18:01:55.171Z,2.81
2022-12-11T18:04:22.961Z,2.81
2022-12-11T18:06:51.280Z,2.77
2022-12-11T18:09:18.473Z,2.77
2022-12-11T18:11:47.995Z,2.76
2022-12-11T18:14:17.626Z,2.72
2022-12-11T18:16:45.345Z,2.72
2022-12-11T18:19:14.361Z,2.68
2022-12-11T18:21:44.353Z,2.67
2022-12-11T18:24:11.831Z,2.64
2022-12-11T18:26:39.392Z,2.63
2022-12-11T18:29:07.218Z,2.66
2022-12-11T18:31:38.975Z,2.65
2022-12-11T18:34:10.927Z,2.66
2022-12-11T18:36:38.596Z,2.66
2022-12-11T18:39:06.119Z,2.68
2022-12-11T18:41:35.035Z,2.64
2022-12-11T18:44:08.123Z,2.61
2022-12-11T18:46:38.051Z,2.59
2022-12-11T18:49:07.372Z,2.62
2022-12-11T18:51:35.333Z,2.63
2022-12-11T18:54:03.111Z,2.63
2022-12-11T18:56:31.908Z,2.57
2022-12-11T18:58:59.111Z,2.57
2022-12-11T19:01:29.080Z,2.52
2022-12-11T19:04:02.730Z,2.44
2022-12-11T19:06:33.684Z,2.55
2022-12-11T19:09:02.635Z,2.52
2022-12-11T19:11:34.246Z,2.51
2022-12-11T19:14:02.780Z,2.50
2022-12-11T19:16:36.620Z,2.53
2022-12-11T19:19:10.470Z,2.52
2022-12-11T19:21:39.212Z,2.50
2022-12-11T19:24:08.903Z,2.47
2022-12-11T19:26:37.612Z,2.49
2022-12-11T19:29:05.726Z,2.54
2022-12-11T19:31:34.330Z,2.51
2022-12-11T19:34:03.055Z,2.50
2022-12-11T19:36:31.592Z,2.45
2022-12-11T19:39:01.837Z,2.49
2022-12-11T19:41:30.634Z,2.46
2022-12-11T19:44:00.261Z,2.45
2022-12-11T19:46:29.107Z,2.48
2022-12-11T19:48:58.745Z,2.45
2022-12-11T19:51:30.640Z,2.45
2022-12-11T19:53:59.683Z,2.50
2022-12-11T19:56:26.699Z,2.47
2022-12-11T19:58:53.885Z,2.50
2022-12-11T20:01:26.324Z,2.42
2022-12-11T20:03:57.264Z,2.44
2022-12-11T20:06:26.147Z,2.46
2022-12-11T20:08:53.862Z,2.43
2022-12-11T20:11:21.875Z,2.43
2022-12-11T20:13:50.574Z,2.43
2022-12-11T20:16:33.367Z,2.42
2022-12-11T20:19:07.727Z,2.40
2022-12-11T20:21:34.922Z,2.39
2022-12-11T20:24:02.825Z,2.35
2022-12-11T20:26:32.680Z,2.33
2022-12-11T20:29:00.577Z,2.36
2022-12-11T20:31:31.742Z,2.36
2022-12-11T20:33:59.747Z,2.35
2022-12-11T20:36:28.093Z,2.36
2022-12-11T20:38:56.337Z,2.34
2022-12-11T20:41:26.106Z,2.36
2022-12-11T20:43:54.738Z,2.35
2022-12-11T20:46:26.088Z,2.34
2022-12-11T20:48:56.168Z,2.34
2022-12-11T20:51:26.498Z,2.38
2022-12-11T20:53:59.522Z,2.37
2022-12-11T20:56:32.019Z,2.41
2022-12-11T20:59:01.428Z,2.36
2022-12-11T21:01:32.778Z,2.19
2022-12-11T21:04:00.936Z,2.25
2022-12-11T21:06:33.811Z,2.32
2022-12-11T21:09:04.891Z,2.35
2022-12-11T21:11:32.315Z,2.36
2022-12-11T21:13:59.664Z,2.36
2022-12-11T21:16:27.229Z,2.38
2022-12-11T21:18:56.323Z,2.36
2022-12-11T21:21:23.864Z,2.33
2022-12-11T21:23:51.602Z,2.34
2022-12-11T21:26:18.791Z,2.30
2022-12-11T21:28:46.151Z,2.31
2022-12-11T21:31:15.837Z,2.32
2022-12-11T21:33:43.174Z,2.35
2022-12-11T21:36:13.503Z,2.34
2022-12-11T21:38:42.245Z,2.35
2022-12-11T21:41:13.675Z,2.35
2022-12-11T21:44:12.948Z,2.33
2022-12-11T21:46:28.911Z,2.27
2022-12-11T21:48:56.160Z,2.30
2022-12-11T21:51:36.160Z,2.31
2022-12-11T21:54:07.178Z,2.33
2022-12-11T21:56:34.099Z,2.32
2022-12-11T21:59:01.801Z,2.29
2022-12-11T22:01:33.604Z,2.31
2022-12-11T22:04:01.251Z,2.30
2022-12-11T22:06:28.045Z,2.28
2022-12-11T22:08:54.881Z,2.28
2022-12-11T22:11:28.424Z,2.29
2022-12-11T22:13:55.891Z,2.26
2022-12-11T22:16:23.015Z,2.27
2022-12-11T22:18:49.948Z,2.24
2022-12-11T22:21:17.393Z,2.22
2022-12-11T22:23:44.712Z,2.24
2022-12-11T22:26:17.284Z,2.19
2022-12-11T22:28:44.303Z,2.14
2022-12-11T22:31:15.221Z,2.15
2022-12-11T22:33:42.560Z,2.12
2022-12-11T22:36:10.944Z,2.17
2022-12-11T22:38:37.996Z,2.15
2022-12-11T22:41:15.256Z,2.15
2022-12-11T22:43:44.391Z,2.16
2022-12-11T22:46:15.637Z,2.13
2022-12-11T22:48:42.371Z,2.13
2022-12-11T22:51:09.980Z,2.11
2022-12-11T22:53:36.897Z,2.10
2022-12-11T22:56:08.038Z,2.08
2022-12-11T22:58:35.575Z,2.10
2022-12-11T23:01:03.214Z,2.10
2022-12-11T23:03:30.000Z,2.09
2022-12-11T23:05:59.710Z,2.07
2022-12-11T23:08:28.814Z,2.09
2022-12-11T23:10:55.638Z,2.10
2022-12-11T23:13:22.501Z,2.11
2022-12-11T23:15:49.321Z,2.11
2022-12-11T23:18:16.122Z,2.11
2022-12-11T23:20:43.242Z,2.10
2022-12-11T23:23:10.061Z,2.07
2022-12-11T23:25:36.863Z,2.10
2022-12-11T23:28:03.691Z,2.11
2022-12-11T23:30:30.573Z,2.10
2022-12-11T23:32:57.409Z,2.11
2022-12-11T23:35:24.440Z,2.10
2022-12-11T23:37:51.287Z,2.10
2022-12-11T23:40:18.120Z,2.09
2022-12-11T23:42:44.940Z,2.05
2022-12-11T23:45:12.023Z,2.11
2022-12-11T23:47:39.036Z,2.08
2022-12-11T23:50:06.257Z,2.08
2022-12-11T23:52:33.055Z,2.08
2022-12-11T23:54:59.844Z,2.05
2022-12-11T23:57:26.691Z,2.02
2022-12-11T23:59:53.429Z,2.03
